createdAt,value
2022-08-24T00:00:29.519Z,101236.50
2022-08-24T00:01:32.155Z,101231.31
2022-08-24T00:02:35.264Z,101235.03
2022-08-24T00:03:39.625Z,101237.13
2022-08-24T00:04:41.329Z,101227.50
2022-08-24T00:05:44.026Z,101232.91
2022-08-24T00:06:45.609Z,101235.00
2022-08-24T00:07:49.697Z,101238.72
2022-08-24T00:08:52.715Z,101239.78
2022-08-24T00:09:55.291Z,101245.38
2022-08-24T00:10:59.624Z,101247.25
2022-08-24T00:12:01.283Z,101242.88
2022-08-24T00:13:04.447Z,101242.88
2022-08-24T00:14:06.819Z,101242.03
2022-08-24T00:15:11.947Z,101242.88
2022-08-24T00:16:15.244Z,101244.94
2022-08-24T00:17:20.443Z,101233.25
2022-08-24T00:18:23.425Z,101243.91
2022-08-24T00:19:26.516Z,101238.66
2022-08-24T00:20:29.092Z,101244.09
2022-08-24T00:21:31.723Z,101241.59
2022-08-24T00:22:33.400Z,101243.66
2022-08-24T00:23:36.994Z,101239.28
2022-08-24T00:24:39.358Z,101233.19
2022-08-24T00:25:42.527Z,101239.00
2022-08-24T00:26:45.950Z,101232.94
2022-08-24T00:27:48.930Z,101235.00
2022-08-24T00:28:50.520Z,101230.63
2022-08-24T00:29:53.107Z,101238.91
2022-08-24T00:30:54.845Z,101235.38
2022-08-24T00:31:57.452Z,101236.41
2022-08-24T00:32:59.422Z,101236.59
2022-08-24T00:34:03.567Z,101233.06
2022-08-24T00:35:06.723Z,101235.97
2022-08-24T00:36:09.628Z,101235.13
2022-08-24T00:37:11.254Z,101238.00
2022-08-24T00:38:14.263Z,101238.00
2022-08-24T00:39:16.097Z,101237.19
2022-08-24T00:40:22.147Z,101239.91
2022-08-24T00:41:24.469Z,101237.19
2022-08-24T00:42:27.165Z,101238.41
2022-08-24T00:43:29.486Z,101241.31
2022-08-24T00:44:32.115Z,101232.19
2022-08-24T00:45:40.631Z,101235.91
2022-08-24T00:46:46.836Z,101234.22
2022-08-24T00:47:51.939Z,101234.44
2022-08-24T00:49:47.415Z,101232.94
2022-08-24T00:50:55.762Z,101233.97
2022-08-24T00:52:04.806Z,101242.09
2022-08-24T00:53:11.829Z,101245.19
2022-08-24T00:54:17.572Z,101237.25
2022-08-24T00:55:26.352Z,101240.19
2022-08-24T00:56:32.570Z,101244.94
2022-08-24T00:57:39.962Z,101245.94
2022-08-24T00:58:47.395Z,101241.59
2022-08-24T01:00:05.107Z,101243.63
2022-08-24T01:01:11.239Z,101237.56
2022-08-24T01:02:18.328Z,101240.28
2022-08-24T01:03:21.613Z,101238.59
2022-08-24T01:04:29.780Z,101236.75
2022-08-24T01:05:34.236Z,101233.19
2022-08-24T01:06:37.372Z,101238.59
2022-08-24T01:07:41.016Z,101238.59
2022-08-24T01:08:43.417Z,101239.66
2022-08-24T01:09:47.268Z,101246.09
2022-08-24T01:10:52.784Z,101247.78
2022-08-24T01:11:55.445Z,101239.00
2022-08-24T01:13:01.526Z,101240.03
2022-08-24T01:14:04.343Z,101238.16
2022-08-24T01:15:09.945Z,101238.16
2022-08-24T01:16:13.543Z,101242.75
2022-08-24T01:17:38.779Z,101240.84
2022-08-24T01:18:50.619Z,101248.16
2022-08-24T01:19:56.264Z,101239.38
2022-08-24T01:21:03.541Z,101238.75
2022-08-24T01:22:26.984Z,101245.19
2022-08-24T01:23:37.004Z,101245.19
2022-08-24T01:24:40.421Z,101236.41
2022-08-24T01:25:44.985Z,101240.16
2022-08-24T01:26:50.260Z,101238.47
2022-08-24T01:27:55.818Z,101242.22
2022-08-24T01:29:03.948Z,101239.50
2022-08-24T01:30:10.540Z,101239.69
2022-08-24T01:31:14.425Z,101244.25
2022-08-24T01:32:18.438Z,101237.19
2022-08-24T01:33:25.833Z,101239.91
2022-08-24T01:34:27.555Z,101245.31
2022-08-24T01:35:31.264Z,101240.06
2022-08-24T01:36:36.092Z,101238.59
2022-08-24T01:37:40.265Z,101238.78
2022-08-24T01:38:43.903Z,101240.63
2022-08-24T01:39:48.892Z,101242.53
2022-08-24T01:40:54.948Z,101237.28
2022-08-24T01:41:58.386Z,101233.94
2022-08-24T01:43:00.377Z,101239.53
2022-08-24T01:44:03.301Z,101242.44
2022-08-24T01:45:07.177Z,101242.44
2022-08-24T01:46:10.474Z,101240.78
2022-08-24T01:47:15.160Z,101241.97
2022-08-24T01:48:19.911Z,101243.66
2022-08-24T01:49:35.375Z,101239.44
2022-08-24T01:50:38.357Z,101236.94
2022-08-24T01:51:39.991Z,101235.25
2022-08-24T01:53:04.325Z,101240.66
2022-08-24T01:54:08.033Z,101236.47
2022-08-24T01:55:13.519Z,101235.63
2022-08-24T01:56:16.679Z,101238.50
2022-08-24T01:57:20.311Z,101247.69
2022-08-24T01:58:25.732Z,101251.41
2022-08-24T01:59:27.440Z,101249.72
2022-08-24T02:00:30.856Z,101250.56
2022-08-24T02:01:37.395Z,101251.41
2022-08-24T02:02:41.266Z,101249.72
2022-08-24T02:03:43.800Z,101254.28
2022-08-24T02:04:46.656Z,101250.94
2022-08-24T02:05:48.427Z,101257.19
2022-08-24T02:06:51.082Z,101255.50
2022-08-24T02:07:53.024Z,101265.47
2022-08-24T02:08:55.879Z,101257.19
2022-08-24T02:09:59.107Z,101266.31
2022-08-24T02:11:01.706Z,101259.22
2022-08-24T02:12:04.148Z,101257.56
2022-08-24T02:13:07.125Z,101257.56
2022-08-24T02:14:08.796Z,101255.88
2022-08-24T02:15:12.806Z,101261.28
2022-08-24T02:16:15.721Z,101251.31
2022-08-24T02:17:18.620Z,101253.00
2022-08-24T02:18:21.321Z,101257.56
2022-08-24T02:19:22.973Z,101257.56
2022-08-24T02:20:26.013Z,101257.56
2022-08-24T02:21:27.642Z,101256.72
2022-08-24T02:22:30.214Z,101254.88
2022-08-24T02:23:32.292Z,101254.19
2022-08-24T02:24:35.344Z,101255.88
2022-08-24T02:25:38.324Z,101259.59
2022-08-24T02:26:41.127Z,101257.94
2022-08-24T02:27:42.812Z,101256.25
2022-08-24T02:28:46.531Z,101261.66
2022-08-24T02:29:48.192Z,101277.06
2022-08-24T02:30:50.856Z,101264.56
2022-08-24T02:31:52.459Z,101274.56
2022-08-24T02:32:55.188Z,101274.56
2022-08-24T02:33:58.288Z,101267.47
2022-08-24T02:35:00.854Z,101272.88
2022-08-24T02:36:02.966Z,101276.59
2022-08-24T02:37:07.576Z,101274.94
2022-08-24T02:38:09.904Z,101274.25
2022-08-24T02:39:12.706Z,101270.91
2022-08-24T02:40:14.500Z,101272.97
2022-08-24T02:41:18.557Z,101267.53
2022-08-24T02:42:20.155Z,101271.31
2022-08-24T02:43:22.744Z,101261.50
2022-08-24T02:44:24.687Z,101267.75
2022-08-24T02:45:27.332Z,101267.06
2022-08-24T02:46:30.821Z,101262.72
2022-08-24T02:47:39.255Z,101264.38
2022-08-24T02:48:41.654Z,101269.78
2022-08-24T02:49:44.872Z,101264.38
2022-08-24T02:50:49.195Z,101264.38
2022-08-24T02:51:51.948Z,101266.06
2022-08-24T02:52:54.299Z,101263.56
2022-08-24T02:53:58.216Z,101271.69
2022-08-24T02:54:59.842Z,101266.28
2022-08-24T02:56:02.530Z,101262.72
2022-08-24T02:57:05.948Z,101271.69
2022-08-24T02:58:09.755Z,101265.22
2022-08-24T02:59:11.531Z,101268.97
2022-08-24T03:00:19.203Z,101268.13
2022-08-24T03:01:24.030Z,101264.56
2022-08-24T03:02:32.980Z,101261.03
2022-08-24T03:03:34.890Z,101258.53
2022-08-24T03:04:38.943Z,101266.66
2022-08-24T03:05:42.623Z,101261.41
2022-08-24T03:06:45.306Z,101265.97
2022-08-24T03:07:47.610Z,101270.53
2022-08-24T03:08:56.178Z,101264.28
2022-08-24T03:09:58.689Z,101271.75
2022-08-24T03:11:01.511Z,101265.50
2022-08-24T03:12:05.105Z,101267.56
2022-08-24T03:13:07.920Z,101269.44
2022-08-24T03:14:10.254Z,101270.44
2022-08-24T03:15:13.922Z,101272.50
2022-08-24T03:16:16.722Z,101272.50
2022-08-24T03:17:19.308Z,101275.38
2022-08-24T03:18:21.280Z,101268.97
2022-08-24T03:19:27.953Z,101273.53
2022-08-24T03:20:29.834Z,101271.66
2022-08-24T03:21:33.220Z,101263.75
2022-08-24T03:22:34.902Z,101268.13
2022-08-24T03:23:38.093Z,101267.47
2022-08-24T03:24:39.906Z,101264.09
2022-08-24T03:25:42.825Z,101273.25
2022-08-24T03:26:44.688Z,101275.28
2022-08-24T03:27:48.680Z,101269.22
2022-08-24T03:28:52.022Z,101260.28
2022-08-24T03:29:54.702Z,101265.69
2022-08-24T03:30:56.437Z,101271.94
2022-08-24T03:31:59.887Z,101271.09
2022-08-24T03:33:01.621Z,101266.53
2022-08-24T03:34:04.515Z,101271.94
2022-08-24T03:35:07.388Z,101267.56
2022-08-24T03:36:13.646Z,101269.41
2022-08-24T03:37:17.332Z,101273.16
2022-08-24T03:38:19.471Z,101273.16
2022-08-24T03:39:22.180Z,101274.00
2022-08-24T03:40:24.802Z,101275.00
2022-08-24T03:41:27.890Z,101272.47
2022-08-24T03:42:29.532Z,101266.25
2022-08-24T03:43:49.073Z,101269.78
2022-08-24T03:44:50.703Z,101271.00
2022-08-24T03:45:53.310Z,101272.00
2022-08-24T03:46:55.130Z,101271.38
2022-08-24T03:47:58.227Z,101270.53
2022-08-24T03:49:00.068Z,101275.09
2022-08-24T03:50:02.894Z,101267.19
2022-08-24T03:51:04.712Z,101268.03
2022-08-24T03:52:08.155Z,101272.59
2022-08-24T03:53:09.729Z,101264.63
2022-08-24T03:54:14.414Z,101269.03
2022-08-24T03:55:16.273Z,101269.03
2022-08-24T03:56:19.046Z,101265.47
2022-08-24T03:57:20.685Z,101263.78
2022-08-24T03:58:23.350Z,101265.66
2022-08-24T03:59:26.439Z,101262.13
2022-08-24T04:00:29.059Z,101262.28
2022-08-24T04:01:31.005Z,101260.78
2022-08-24T04:02:34.074Z,101259.09
2022-08-24T04:03:36.894Z,101262.00
2022-08-24T04:04:39.483Z,101267.59
2022-08-24T04:05:42.310Z,101274.03
2022-08-24T04:06:46.776Z,101270.66
2022-08-24T04:07:48.595Z,101271.50
2022-08-24T04:08:52.296Z,101264.25
2022-08-24T04:09:54.130Z,101264.41
2022-08-24T04:10:56.779Z,101276.91
2022-08-24T04:11:59.527Z,101271.50
2022-08-24T04:13:01.525Z,101271.50
2022-08-24T04:14:05.135Z,101271.50
2022-08-24T04:15:10.004Z,101263.41
2022-08-24T04:16:15.256Z,101262.56
2022-08-24T04:17:16.997Z,101271.50
2022-08-24T04:18:19.800Z,101266.09
2022-08-24T04:19:21.516Z,101275.22
2022-08-24T04:20:25.723Z,101274.38
2022-08-24T04:21:29.138Z,101278.97
2022-08-24T04:22:33.986Z,101275.41
2022-08-24T04:23:46.986Z,101277.66
2022-08-24T04:24:50.546Z,101280.50
2022-08-24T04:25:52.191Z,101280.50
2022-08-24T04:26:54.858Z,101283.06
2022-08-24T04:27:56.561Z,101283.06
2022-08-24T04:28:59.944Z,101277.66
2022-08-24T04:30:01.607Z,101277.66
2022-08-24T04:31:07.399Z,101277.66
2022-08-24T04:32:09.587Z,101283.06
2022-08-24T04:33:13.401Z,101281.00
2022-08-24T04:34:16.386Z,101281.00
2022-08-24T04:35:19.050Z,101287.25
2022-08-24T04:36:21.804Z,101279.34
2022-08-24T04:37:29.165Z,101277.66
2022-08-24T04:38:31.514Z,101275.97
2022-08-24T04:39:34.469Z,101284.91
2022-08-24T04:40:39.609Z,101275.13
2022-08-24T04:41:42.759Z,101284.75
2022-08-24T04:42:44.545Z,101286.41
2022-08-24T04:43:49.350Z,101288.94
2022-08-24T04:44:51.137Z,101280.81
2022-08-24T04:45:53.977Z,101283.53
2022-08-24T04:46:58.382Z,101288.72
2022-08-24T04:48:00.240Z,101290.59
2022-08-24T04:49:02.952Z,101284.16
2022-08-24T04:50:05.819Z,101282.31
2022-08-24T04:51:14.075Z,101282.31
2022-08-24T04:52:16.086Z,101284.16
2022-08-24T04:53:18.723Z,101287.72
2022-08-24T04:54:20.563Z,101278.59
2022-08-24T04:55:23.177Z,101287.53
2022-08-24T04:56:26.124Z,101288.34
2022-08-24T04:57:28.784Z,101285.66
2022-08-24T04:58:31.455Z,101292.75
2022-08-24T04:59:34.041Z,101290.88
2022-08-24T05:00:35.798Z,101295.09
2022-08-24T05:01:38.385Z,101294.06
2022-08-24T05:02:44.872Z,101298.47
2022-08-24T05:03:50.207Z,101295.75
2022-08-24T05:04:52.866Z,101294.72
2022-08-24T05:05:54.529Z,101295.56
2022-08-24T05:06:57.208Z,101298.25
2022-08-24T05:07:58.832Z,101295.38
2022-08-24T05:09:02.323Z,101296.19
2022-08-24T05:10:05.582Z,101303.28
2022-08-24T05:11:12.015Z,101301.47
2022-08-24T05:12:13.801Z,101305.03
2022-08-24T05:13:17.227Z,101296.91
2022-08-24T05:14:18.968Z,101309.22
2022-08-24T05:15:21.713Z,101305.50
2022-08-24T05:16:24.939Z,101311.53
2022-08-24T05:17:28.631Z,101308.84
2022-08-24T05:18:33.477Z,101305.13
2022-08-24T05:19:36.124Z,101309.31
2022-08-24T05:20:39.722Z,101306.59
2022-08-24T05:21:44.222Z,101308.47
2022-08-24T05:22:46.003Z,101308.28
2022-08-24T05:23:48.690Z,101308.09
2022-08-24T05:24:51.707Z,101308.09
2022-08-24T05:25:53.419Z,101307.09
2022-08-24T05:26:56.401Z,101307.94
2022-08-24T05:27:58.268Z,101308.78
2022-08-24T05:29:02.804Z,101315.84
2022-08-24T05:30:05.910Z,101314.81
2022-08-24T05:31:10.795Z,101315.66
2022-08-24T05:32:19.086Z,101312.75
2022-08-24T05:33:20.802Z,101314.44
2022-08-24T05:34:25.070Z,101312.41
2022-08-24T05:35:26.722Z,101314.06
2022-08-24T05:36:31.100Z,101312.03
2022-08-24T05:37:35.059Z,101313.69
2022-08-24T05:38:37.642Z,101318.75
2022-08-24T05:39:39.291Z,101312.97
2022-08-24T05:40:42.129Z,101316.59
2022-08-24T05:41:45.584Z,101316.69
2022-08-24T05:42:48.533Z,101322.03
2022-08-24T05:43:50.865Z,101321.91
2022-08-24T05:44:53.559Z,101319.97
2022-08-24T05:45:55.456Z,101323.63
2022-08-24T05:46:59.446Z,101326.22
2022-08-24T05:48:01.164Z,101321.72
2022-08-24T05:49:03.805Z,101320.59
2022-08-24T05:50:08.166Z,101315.91
2022-08-24T05:51:11.930Z,101318.69
2022-08-24T05:52:14.038Z,101327.06
2022-08-24T05:53:16.722Z,101324.63
2022-08-24T05:54:19.811Z,101319.88
2022-08-24T05:55:21.505Z,101317.63
2022-08-24T05:56:26.734Z,101329.53
2022-08-24T05:57:33.579Z,101323.72
2022-08-24T05:58:37.895Z,101325.69
2022-08-24T05:59:40.032Z,101324.91
2022-08-24T06:00:45.629Z,101320.78
2022-08-24T06:01:47.321Z,101327.31
2022-08-24T06:02:52.714Z,101326.72
2022-08-24T06:03:55.969Z,101331.75
2022-08-24T06:04:58.690Z,101324.94
2022-08-24T06:06:02.860Z,101325.16
2022-08-24T06:07:06.172Z,101324.78
2022-08-24T06:08:08.240Z,101327.75
2022-08-24T06:09:11.997Z,101327.34
2022-08-24T06:10:35.379Z,101321.53
2022-08-24T06:11:39.181Z,101325.72
2022-08-24T06:12:40.761Z,101337.03
2022-08-24T06:13:43.571Z,101328.31
2022-08-24T06:14:47.431Z,101331.47
2022-08-24T06:16:10.906Z,101333.78
2022-08-24T06:17:12.489Z,101338.19
2022-08-24T06:18:14.342Z,101334.00
2022-08-24T06:19:19.951Z,101339.72
2022-08-24T06:20:22.137Z,101339.34
2022-08-24T06:21:28.641Z,101338.94
2022-08-24T06:22:30.479Z,101338.72
2022-08-24T06:23:33.224Z,101331.03
2022-08-24T06:24:54.545Z,101345.88
2022-08-24T06:26:20.159Z,101343.78
2022-08-24T06:27:26.174Z,101341.34
2022-08-24T06:28:27.758Z,101339.91
2022-08-24T06:29:30.553Z,101335.09
2022-08-24T06:30:32.939Z,101341.81
2022-08-24T06:31:39.804Z,101344.13
2022-08-24T06:32:43.954Z,101343.72
2022-08-24T06:33:47.854Z,101345.00
2022-08-24T06:34:49.559Z,101342.91
2022-08-24T06:35:52.458Z,101340.03
2022-08-24T06:36:55.737Z,101344.19
2022-08-24T06:37:59.628Z,101340.06
2022-08-24T06:39:01.726Z,101345.09
2022-08-24T06:40:05.254Z,101345.53
2022-08-24T06:41:07.440Z,101347.66
2022-08-24T06:42:10.949Z,101350.16
2022-08-24T06:43:12.608Z,101351.00
2022-08-24T06:44:15.236Z,101347.06
2022-08-24T06:45:17.191Z,101349.34
2022-08-24T06:46:24.441Z,101350.81
2022-08-24T06:47:28.500Z,101354.38
2022-08-24T06:48:30.460Z,101347.06
2022-08-24T06:49:33.054Z,101354.81
2022-08-24T06:50:35.418Z,101352.72
2022-08-24T06:51:38.002Z,101359.84
2022-08-24T06:52:40.941Z,101356.28
2022-08-24T06:53:46.263Z,101359.22
2022-08-24T06:54:47.930Z,101356.91
2022-08-24T06:55:51.633Z,101352.69
2022-08-24T06:56:56.226Z,101358.34
2022-08-24T06:57:58.348Z,101357.69
2022-08-24T06:59:03.212Z,101361.88
2022-08-24T07:00:07.935Z,101357.63
2022-08-24T07:01:13.327Z,101361.81
2022-08-24T07:02:16.306Z,101358.44
2022-08-24T07:03:19.016Z,101355.09
2022-08-24T07:04:21.835Z,101363.44
2022-08-24T07:05:30.155Z,101358.00
2022-08-24T07:06:31.774Z,101365.50
2022-08-24T07:07:34.437Z,101359.06
2022-08-24T07:08:37.515Z,101367.19
2022-08-24T07:09:40.254Z,101364.50
2022-08-24T07:10:42.613Z,101365.13
2022-08-24T07:11:45.317Z,101363.25
2022-08-24T07:12:47.268Z,101373.06
2022-08-24T07:13:51.097Z,101374.72
2022-08-24T07:14:52.849Z,101364.72
2022-08-24T07:15:56.094Z,101364.72
2022-08-24T07:16:58.887Z,101373.50
2022-08-24T07:18:01.204Z,101364.53
2022-08-24T07:19:05.279Z,101368.72
2022-08-24T07:20:09.135Z,101367.69
2022-08-24T07:21:11.717Z,101362.91
2022-08-24T07:22:13.975Z,101367.31
2022-08-24T07:23:22.442Z,101365.44
2022-08-24T07:24:46.518Z,101368.97
2022-08-24T07:25:52.154Z,101365.22
2022-08-24T07:26:58.180Z,101373.97
2022-08-24T07:28:00.713Z,101369.22
2022-08-24T07:29:06.640Z,101369.84
2022-08-24T07:30:26.376Z,101365.06
2022-08-24T07:31:35.100Z,101367.78
2022-08-24T07:32:37.119Z,101370.50
2022-08-24T07:33:39.665Z,101365.69
2022-08-24T07:34:41.396Z,101361.94
2022-08-24T07:35:44.109Z,101363.41
2022-08-24T07:36:45.777Z,101363.19
2022-08-24T07:37:48.386Z,101366.75
2022-08-24T07:38:53.308Z,101363.84
2022-08-24T07:39:57.917Z,101360.72
2022-08-24T07:41:20.621Z,101366.16
2022-08-24T07:42:29.716Z,101370.53
2022-08-24T07:43:33.541Z,101370.31
2022-08-24T07:44:36.820Z,101369.06
2022-08-24T07:45:41.972Z,101367.00
2022-08-24T07:46:45.327Z,101374.09
2022-08-24T07:47:54.595Z,101372.03
2022-08-24T07:49:11.414Z,101370.78
2022-08-24T07:50:16.249Z,101374.34
2022-08-24T07:51:19.372Z,101370.38
2022-08-24T07:52:22.316Z,101372.91
2022-08-24T07:53:32.468Z,101378.97
2022-08-24T07:54:46.592Z,101380.84
2022-08-24T07:55:55.152Z,101377.94
2022-08-24T07:57:02.239Z,101371.25
2022-08-24T07:58:05.078Z,101373.72
2022-08-24T07:59:12.339Z,101384.22
2022-08-24T08:00:19.555Z,101377.72
2022-08-24T08:01:23.247Z,101373.97
2022-08-24T08:02:25.266Z,101380.88
2022-08-24T08:03:35.305Z,101374.59
2022-08-24T08:04:39.492Z,101377.97
2022-08-24T08:05:43.069Z,101381.31
2022-08-24T08:06:45.687Z,101386.31
2022-08-24T08:07:51.504Z,101379.47
2022-08-24T08:08:55.954Z,101380.09
2022-08-24T08:09:57.954Z,101385.78
2022-08-24T08:11:02.913Z,101390.78
2022-08-24T08:12:06.497Z,101385.97
2022-08-24T08:13:16.312Z,101387.25
2022-08-24T08:14:19.017Z,101385.16
2022-08-24T08:15:22.060Z,101389.97
2022-08-24T08:16:24.870Z,101393.31
2022-08-24T08:17:27.185Z,101396.47
2022-08-24T08:18:29.954Z,101390.59
2022-08-24T08:19:32.990Z,101403.78
2022-08-24T08:20:34.862Z,101399.00
2022-08-24T08:22:00.655Z,101391.47
2022-08-24T08:23:20.924Z,101404.03
2022-08-24T08:24:23.593Z,101398.16
2022-08-24T08:25:26.465Z,101396.91
2022-08-24T08:26:30.546Z,101395.66
2022-08-24T08:27:32.981Z,101398.78
2022-08-24T08:28:36.386Z,101399.22
2022-08-24T08:29:40.434Z,101397.13
2022-08-24T08:30:43.216Z,101399.63
2022-08-24T08:31:45.617Z,101408.63
2022-08-24T08:32:48.225Z,101403.19
2022-08-24T08:33:49.802Z,101400.28
2022-08-24T08:34:52.531Z,101404.66
2022-08-24T08:36:03.067Z,101404.47
2022-08-24T08:37:06.453Z,101403.63
2022-08-24T08:38:09.005Z,101403.63
2022-08-24T08:39:15.672Z,101399.84
2022-08-24T08:40:28.324Z,101395.91
2022-08-24T08:42:05.238Z,101399.25
2022-08-24T08:43:11.624Z,101395.69
2022-08-24T08:44:20.052Z,101409.09
2022-08-24T08:45:36.366Z,101398.22
2022-08-24T08:46:45.337Z,101399.47
2022-08-24T08:48:14.745Z,101404.91
2022-08-24T08:49:40.251Z,101403.22
2022-08-24T08:51:03.137Z,101407.63
2022-08-24T08:52:43.822Z,101401.13
2022-08-24T08:54:13.098Z,101399.47
2022-08-24T08:55:29.287Z,101396.53
2022-08-24T08:56:35.689Z,101399.88
2022-08-24T08:57:54.640Z,101395.91
2022-08-24T08:59:06.644Z,101389.00
2022-08-24T09:00:15.709Z,101388.16
2022-08-24T09:01:32.534Z,101394.84
2022-08-24T09:03:03.425Z,101393.16
2022-08-24T09:04:21.631Z,101390.63
2022-08-24T09:05:49.479Z,101391.03
2022-08-24T09:07:08.372Z,101392.09
2022-08-24T09:08:19.545Z,101396.03
2022-08-24T09:09:42.522Z,101391.00
2022-08-24T09:10:57.974Z,101397.72
2022-08-24T09:12:08.908Z,101391.00
2022-08-24T09:13:33.331Z,101393.56
2022-08-24T09:15:11.012Z,101389.75
2022-08-24T09:16:25.760Z,101393.13
2022-08-24T09:17:46.108Z,101385.56
2022-08-24T09:19:02.790Z,101391.41
2022-08-24T09:20:23.790Z,101384.69
2022-08-24T09:21:41.964Z,101384.25
2022-08-24T09:22:48.284Z,101383.03
2022-08-24T09:24:00.438Z,101383.44
2022-08-24T09:25:16.829Z,101383.00
2022-08-24T09:26:27.050Z,101388.00
2022-08-24T09:27:41.978Z,101381.28
2022-08-24T09:28:52.075Z,101376.44
2022-08-24T09:30:08.131Z,101372.47
2022-08-24T09:31:36.775Z,101384.84
2022-08-24T09:32:56.244Z,101382.94
2022-08-24T09:34:08.721Z,101382.94
2022-08-24T09:35:26.296Z,101377.25
2022-08-24T09:36:40.168Z,101376.41
2022-08-24T09:37:59.007Z,101380.00
2022-08-24T09:39:08.453Z,101381.66
2022-08-24T09:40:28.095Z,101374.94
2022-08-24T09:42:09.336Z,101375.78
2022-08-24T09:43:44.148Z,101372.22
2022-08-24T09:45:20.908Z,101376.63
2022-08-24T09:46:57.767Z,101367.59
2022-08-24T09:48:36.973Z,101368.44
2022-08-24T09:50:03.702Z,101363.59
2022-08-24T09:51:29.816Z,101363.16
2022-08-24T09:52:57.843Z,101360.63
2022-08-24T09:54:28.925Z,101362.50
2022-08-24T09:56:02.434Z,101367.69
2022-08-24T09:57:50.480Z,101362.44
2022-08-24T09:59:08.645Z,101364.28
2022-08-24T10:00:19.604Z,101357.94
2022-08-24T10:01:30.948Z,101358.13
2022-08-24T10:02:58.342Z,101351.16
2022-08-24T10:04:18.899Z,101360.59
2022-08-24T10:05:36.421Z,101360.13
2022-08-24T10:06:52.850Z,101363.50
2022-08-24T10:08:05.021Z,101365.78
2022-08-24T10:09:40.832Z,101354.63
2022-08-24T10:10:50.951Z,101355.25
2022-08-24T10:12:01.835Z,101355.63
2022-08-24T10:13:20.374Z,101357.94
2022-08-24T10:14:42.082Z,101353.94
2022-08-24T10:15:57.427Z,101350.97
2022-08-24T10:17:09.293Z,101348.91
2022-08-24T10:18:24.727Z,101351.38
2022-08-24T10:19:49.553Z,101346.75
2022-08-24T10:21:04.307Z,101350.09
2022-08-24T10:22:15.203Z,101354.28
2022-08-24T10:23:39.507Z,101345.88
2022-08-24T10:25:00.655Z,101340.19
2022-08-24T10:26:08.924Z,101346.88
2022-08-24T10:27:24.798Z,101349.38
2022-08-24T10:28:39.654Z,101344.75
2022-08-24T10:30:04.588Z,101346.66
2022-08-24T10:31:13.092Z,101344.53
2022-08-24T10:32:41.220Z,101339.69
2022-08-24T10:33:59.126Z,101341.97
2022-08-24T10:35:06.664Z,101339.38
2022-08-24T10:36:25.825Z,101335.78
2022-08-24T10:38:13.508Z,101335.72
2022-08-24T10:39:43.639Z,101341.53
2022-08-24T10:40:59.167Z,101329.09
2022-08-24T10:42:34.274Z,101333.25
2022-08-24T10:44:06.867Z,101333.06
2022-08-24T10:45:24.827Z,101326.09
2022-08-24T10:49:22.214Z,101327.69
2022-08-24T10:50:41.617Z,101325.34
2022-08-24T10:52:00.333Z,101321.94
2022-08-24T10:53:24.010Z,101326.94
2022-08-24T10:54:26.217Z,101325.63
2022-08-24T10:55:31.894Z,101319.50
2022-08-24T10:56:41.918Z,101315.47
2022-08-24T10:57:55.066Z,101319.63
2022-08-24T10:59:08.161Z,101311.22
2022-08-24T11:00:22.934Z,101315.38
2022-08-24T11:01:30.529Z,101319.34
2022-08-24T11:02:34.729Z,101317.19
2022-08-24T11:03:50.454Z,101312.56
2022-08-24T11:04:57.364Z,101320.53
2022-08-24T11:06:00.613Z,101313.16
2022-08-24T11:07:08.718Z,101323.03
2022-08-24T11:08:18.097Z,101321.34
2022-08-24T11:09:20.664Z,101317.81
2022-08-24T11:10:25.868Z,101318.41
2022-08-24T11:11:34.176Z,101310.22
2022-08-24T11:12:39.921Z,101314.00
2022-08-24T11:13:52.307Z,101313.16
2022-08-24T11:14:56.638Z,101316.50
2022-08-24T11:16:00.309Z,101317.09
2022-08-24T11:17:16.324Z,101317.94
2022-08-24T11:18:18.434Z,101307.59
2022-08-24T11:19:33.212Z,101313.69
2022-08-24T11:20:40.979Z,101309.06
2022-08-24T11:21:50.962Z,101306.91
2022-08-24T11:23:02.663Z,101301.25
2022-08-24T11:24:09.686Z,101307.28
2022-08-24T11:25:17.887Z,101310.88
2022-08-24T11:26:22.160Z,101309.56
2022-08-24T11:27:32.304Z,101307.69
2022-08-24T11:28:38.858Z,101301.34
2022-08-24T11:30:02.770Z,101299.94
2022-08-24T11:31:06.042Z,101295.06
2022-08-24T11:32:07.757Z,101300.34
2022-08-24T11:33:28.722Z,101297.59
2022-08-24T11:34:34.657Z,101297.59
2022-08-24T11:35:41.252Z,101297.13
2022-08-24T11:36:44.169Z,101288.69
2022-08-24T11:37:49.940Z,101293.69
2022-08-24T11:39:12.576Z,101298.34
2022-08-24T11:40:17.932Z,101287.63
2022-08-24T11:41:25.803Z,101292.03
2022-08-24T11:42:38.859Z,101292.03
2022-08-24T11:43:57.731Z,101290.34
2022-08-24T11:45:09.133Z,101285.16
2022-08-24T11:46:22.986Z,101287.63
2022-08-24T11:47:43.151Z,101285.94
2022-08-24T11:48:59.641Z,101285.72
2022-08-24T11:50:08.672Z,101283.59
2022-08-24T11:51:16.717Z,101280.63
2022-08-24T11:52:27.125Z,101287.31
2022-08-24T11:54:57.735Z,101286.59
2022-08-24T11:56:08.023Z,101282.53
2022-08-24T11:57:15.971Z,101279.97
2022-08-24T11:58:30.444Z,101284.97
2022-08-24T11:59:45.356Z,101279.84
2022-08-24T12:01:09.531Z,101274.38
2022-08-24T12:02:18.658Z,101278.06
2022-08-24T12:03:35.160Z,101280.94
2022-08-24T12:04:50.551Z,101274.16
2022-08-24T12:05:58.838Z,101271.53
2022-08-24T12:07:12.418Z,101268.13
2022-08-24T12:08:23.345Z,101268.50
2022-08-24T12:09:38.980Z,101265.53
2022-08-24T12:10:50.571Z,101269.47
2022-08-24T12:12:00.425Z,101279.69
2022-08-24T12:13:11.574Z,101276.00
2022-08-24T12:14:21.852Z,101279.94
2022-08-24T12:15:39.368Z,101273.16
2022-08-24T12:16:48.333Z,101273.75
2022-08-24T12:17:56.251Z,101268.88
2022-08-24T12:19:05.686Z,101268.88
2022-08-24T12:20:25.716Z,101273.50
2022-08-24T12:21:32.538Z,101276.00
2022-08-24T12:22:34.198Z,101270.03
2022-08-24T12:23:39.856Z,101266.03
2022-08-24T12:24:46.824Z,101267.91
2022-08-24T12:26:03.333Z,101265.19
2022-08-24T12:27:11.571Z,101266.25
2022-08-24T12:28:17.326Z,101271.72
2022-08-24T12:29:27.256Z,101266.25
2022-08-24T12:30:28.900Z,101274.22
2022-08-24T12:31:40.395Z,101262.81
2022-08-24T12:32:45.528Z,101266.97
2022-08-24T12:33:52.013Z,101266.47
2022-08-24T12:34:59.891Z,101263.72
2022-08-24T12:36:04.696Z,101267.78
2022-08-24T12:37:16.027Z,101259.81
2022-08-24T12:38:26.334Z,101263.63
2022-08-24T12:39:35.509Z,101260.66
2022-08-24T12:40:43.993Z,101254.09
2022-08-24T12:41:56.573Z,101253.84
2022-08-24T12:43:04.747Z,101262.69
2022-08-24T12:44:12.577Z,101259.94
2022-08-24T12:45:18.550Z,101255.03
2022-08-24T12:46:24.055Z,101262.19
2022-08-24T12:47:33.120Z,101255.41
2022-08-24T12:48:42.645Z,101263.13
2022-08-24T12:49:51.477Z,101262.44
2022-08-24T12:51:08.107Z,101264.94
2022-08-24T12:52:25.284Z,101258.16
2022-08-24T12:53:55.973Z,101265.53